Lower Peach Tree, Alabama
Current Conditions -  °F | °C
As of 3:53 PM on Tuesday 25 Nov 2014 (Local Time) from KGZH Reporting Station
Broken Clouds Broken Clouds  
Wind Chill: 58°   Ceiling: 10000
Heat Index: 58°   Visibility: 10mi
Dew Point: 34°   Wind: 3mph
Humidity: 41%   Direction: NA
Pressure: 30.08"   Gusts: NA
Location:  31.84°N, 87.55°W
Report Text: KGZH 252153Z AUTO VRB03KT 10SM BKN100 14/01 A3008 RMK AO2 PRESRR SLP184 T01440011
Loading
Personal Weather Stations






























Interactive Weather Map New forecast layout! Learn more

10-Day Weather Forecast

Advertisements
Track Severe Weather on mobile